sensor_id;sensor_type;location;lat;lon;timestamp;temperature;humidity
53264;DHT22;39153;52.680;6.172;2023-05-14T00:01:55;13.50;99.90
53264;DHT22;39153;52.680;6.172;2023-05-14T00:04:21;13.50;99.90
53264;DHT22;39153;52.680;6.172;2023-05-14T00:06:47;13.50;99.90
53264;DHT22;39153;52.680;6.172;2023-05-14T00:09:13;13.40;99.90
53264;DHT22;39153;52.680;6.172;2023-05-14T00:11:39;13.30;99.90
53264;DHT22;39153;52.680;6.172;2023-05-14T00:14:05;13.30;99.90
53264;DHT22;39153;52.680;6.172;2023-05-14T00:16:30;13.20;99.90
53264;DHT22;39153;52.680;6.172;2023-05-14T00:18:56;13.30;99.90
53264;DHT22;39153;52.680;6.172;2023-05-14T00:21:22;13.20;99.90
53264;DHT22;39153;52.680;6.172;2023-05-14T00:23:47;13.20;99.90
53264;DHT22;39153;52.680;6.172;2023-05-14T00:26:13;13.20;99.90
53264;DHT22;39153;52.680;6.172;2023-05-14T00:28:39;13.30;99.90
53264;DHT22;39153;52.680;6.172;2023-05-14T00:31:04;13.10;99.90
53264;DHT22;39153;52.680;6.172;2023-05-14T00:33:30;13.20;99.90
53264;DHT22;39153;52.680;6.172;2023-05-14T00:35:56;13.20;99.90
53264;DHT22;39153;52.680;6.172;2023-05-14T00:38:22;13.10;99.90
53264;DHT22;39153;52.680;6.172;2023-05-14T00:40:48;13.30;99.90
53264;DHT22;39153;52.680;6.172;2023-05-14T00:43:20;13.10;99.90
53264;DHT22;39153;52.680;6.172;2023-05-14T00:45:48;13.10;99.90
53264;DHT22;39153;52.680;6.172;2023-05-14T00:48:14;13.00;99.90
53264;DHT22;39153;52.680;6.172;2023-05-14T00:53:07;12.80;99.90
53264;DHT22;39153;52.680;6.172;2023-05-14T00:55:36;12.80;99.90
53264;DHT22;39153;52.680;6.172;2023-05-14T00:58:13;12.80;99.90
53264;DHT22;39153;52.680;6.172;2023-05-14T01:00:40;12.80;99.90
53264;DHT22;39153;52.680;6.172;2023-05-14T01:03:06;12.70;99.90
53264;DHT22;39153;52.680;6.172;2023-05-14T01:11:28;12.50;99.90
53264;DHT22;39153;52.680;6.172;2023-05-14T01:16:28;12.40;99.90
53264;DHT22;39153;52.680;6.172;2023-05-14T01:18:56;12.40;99.90
53264;DHT22;39153;52.680;6.172;2023-05-14T01:21:32;12.30;99.90
53264;DHT22;39153;52.680;6.172;2023-05-14T01:23:58;12.30;99.90
53264;DHT22;39153;52.680;6.172;2023-05-14T01:26:24;12.30;99.90
53264;DHT22;39153;52.680;6.172;2023-05-14T01:28:50;12.20;99.90
53264;DHT22;39153;52.680;6.172;2023-05-14T01:31:20;12.20;99.90
53264;DHT22;39153;52.680;6.172;2023-05-14T01:33:53;12.20;99.90
53264;DHT22;39153;52.680;6.172;2023-05-14T01:36:22;12.10;99.90
53264;DHT22;39153;52.680;6.172;2023-05-14T01:38:48;12.10;99.90
53264;DHT22;39153;52.680;6.172;2023-05-14T01:41:15;12.10;99.90
53264;DHT22;39153;52.680;6.172;2023-05-14T01:43:43;12.20;99.90
53264;DHT22;39153;52.680;6.172;2023-05-14T01:46:09;12.10;99.90
53264;DHT22;39153;52.680;6.172;2023-05-14T01:48:34;12.10;99.90
53264;DHT22;39153;52.680;6.172;2023-05-14T01:51:02;12.00;99.90
53264;DHT22;39153;52.680;6.172;2023-05-14T01:53:28;11.90;99.90
53264;DHT22;39153;52.680;6.172;2023-05-14T01:55:53;11.90;99.90
53264;DHT22;39153;52.680;6.172;2023-05-14T01:58:19;11.80;99.90
53264;DHT22;39153;52.680;6.172;2023-05-14T02:00:45;11.80;99.90
53264;DHT22;39153;52.680;6.172;2023-05-14T02:03:11;11.80;99.90
53264;DHT22;39153;52.680;6.172;2023-05-14T02:05:36;11.80;99.90
53264;DHT22;39153;52.680;6.172;2023-05-14T02:08:02;11.70;99.90
53264;DHT22;39153;52.680;6.172;2023-05-14T02:10:28;11.70;99.90
53264;DHT22;39153;52.680;6.172;2023-05-14T02:12:55;11.70;99.90
53264;DHT22;39153;52.680;6.172;2023-05-14T02:15:20;11.70;99.90
53264;DHT22;39153;52.680;6.172;2023-05-14T02:17:46;11.70;99.90
53264;DHT22;39153;52.680;6.172;2023-05-14T02:20:12;11.70;99.90
53264;DHT22;39153;52.680;6.172;2023-05-14T02:22:37;11.70;99.90
53264;DHT22;39153;52.680;6.172;2023-05-14T02:25:07;11.70;99.90
53264;DHT22;39153;52.680;6.172;2023-05-14T02:27:33;11.60;99.90
53264;DHT22;39153;52.680;6.172;2023-05-14T02:29:58;11.70;99.90
53264;DHT22;39153;52.680;6.172;2023-05-14T02:32:26;11.70;99.90
53264;DHT22;39153;52.680;6.172;2023-05-14T02:34:52;11.60;99.90
53264;DHT22;39153;52.680;6.172;2023-05-14T02:37:17;11.70;99.90
53264;DHT22;39153;52.680;6.172;2023-05-14T02:39:43;11.60;99.90
53264;DHT22;39153;52.680;6.172;2023-05-14T02:42:09;11.60;99.90
53264;DHT22;39153;52.680;6.172;2023-05-14T02:44:34;11.60;99.90
53264;DHT22;39153;52.680;6.172;2023-05-14T02:47:00;11.60;99.90
53264;DHT22;39153;52.680;6.172;2023-05-14T02:49:26;11.60;99.90
53264;DHT22;39153;52.680;6.172;2023-05-14T02:51:51;11.50;99.90
53264;DHT22;39153;52.680;6.172;2023-05-14T02:54:18;11.50;99.90
53264;DHT22;39153;52.680;6.172;2023-05-14T02:56:44;11.50;99.90
53264;DHT22;39153;52.680;6.172;2023-05-14T02:59:10;11.40;99.90
53264;DHT22;39153;52.680;6.172;2023-05-14T03:01:35;11.40;99.90
53264;DHT22;39153;52.680;6.172;2023-05-14T03:04:01;11.40;99.90
53264;DHT22;39153;52.680;6.172;2023-05-14T03:06:26;11.30;99.90
53264;DHT22;39153;52.680;6.172;2023-05-14T03:08:52;11.40;99.90
53264;DHT22;39153;52.680;6.172;2023-05-14T03:11:18;11.40;99.90
53264;DHT22;39153;52.680;6.172;2023-05-14T03:13:43;11.30;99.90
53264;DHT22;39153;52.680;6.172;2023-05-14T03:16:09;11.30;99.90
53264;DHT22;39153;52.680;6.172;2023-05-14T03:18:35;11.20;99.90
53264;DHT22;39153;52.680;6.172;2023-05-14T03:21:01;11.20;99.90
53264;DHT22;39153;52.680;6.172;2023-05-14T03:23:28;11.10;99.90
53264;DHT22;39153;52.680;6.172;2023-05-14T03:25:56;11.20;99.90
53264;DHT22;39153;52.680;6.172;2023-05-14T03:28:22;11.20;99.90
53264;DHT22;39153;52.680;6.172;2023-05-14T03:30:47;11.10;99.90
53264;DHT22;39153;52.680;6.172;2023-05-14T03:33:13;11.10;99.90
53264;DHT22;39153;52.680;6.172;2023-05-14T03:35:39;11.10;99.90
53264;DHT22;39153;52.680;6.172;2023-05-14T03:38:05;11.10;99.90
53264;DHT22;39153;52.680;6.172;2023-05-14T03:40:30;11.10;99.90
53264;DHT22;39153;52.680;6.172;2023-05-14T03:42:56;11.10;99.90
53264;DHT22;39153;52.680;6.172;2023-05-14T03:45:22;11.10;99.90
53264;DHT22;39153;52.680;6.172;2023-05-14T03:47:47;11.10;99.90
53264;DHT22;39153;52.680;6.172;2023-05-14T03:50:13;11.10;99.90
53264;DHT22;39153;52.680;6.172;2023-05-14T03:52:39;11.10;99.90
53264;DHT22;39153;52.680;6.172;2023-05-14T03:55:05;11.00;99.90
53264;DHT22;39153;52.680;6.172;2023-05-14T03:57:31;11.00;99.90
53264;DHT22;39153;52.680;6.172;2023-05-14T03:59:56;11.00;99.90
53264;DHT22;39153;52.680;6.172;2023-05-14T04:02:22;10.90;99.90
53264;DHT22;39153;52.680;6.172;2023-05-14T04:04:48;10.90;99.90
53264;DHT22;39153;52.680;6.172;2023-05-14T04:07:13;11.00;99.90
53264;DHT22;39153;52.680;6.172;2023-05-14T04:09:39;10.90;99.90
53264;DHT22;39153;52.680;6.172;2023-05-14T04:12:05;10.90;99.90
53264;DHT22;39153;52.680;6.172;2023-05-14T04:14:31;10.90;99.90
53264;DHT22;39153;52.680;6.172;2023-05-14T04:16:56;11.00;99.90
53264;DHT22;39153;52.680;6.172;2023-05-14T04:19:22;11.00;99.90
53264;DHT22;39153;52.680;6.172;2023-05-14T04:21:48;11.00;99.90
53264;DHT22;39153;52.680;6.172;2023-05-14T04:24:13;11.00;99.90
53264;DHT22;39153;52.680;6.172;2023-05-14T04:26:39;10.90;99.90
53264;DHT22;39153;52.680;6.172;2023-05-14T04:29:05;11.00;99.90
53264;DHT22;39153;52.680;6.172;2023-05-14T04:31:30;10.90;99.90
53264;DHT22;39153;52.680;6.172;2023-05-14T04:33:56;10.90;99.90
53264;DHT22;39153;52.680;6.172;2023-05-14T04:36:22;10.90;99.90
53264;DHT22;39153;52.680;6.172;2023-05-14T04:38:47;10.90;99.90
53264;DHT22;39153;52.680;6.172;2023-05-14T04:41:13;10.90;99.90
53264;DHT22;39153;52.680;6.172;2023-05-14T04:43:39;10.90;99.90
53264;DHT22;39153;52.680;6.172;2023-05-14T04:46:05;10.90;99.90
53264;DHT22;39153;52.680;6.172;2023-05-14T04:48:30;10.80;99.90
53264;DHT22;39153;52.680;6.172;2023-05-14T04:50:56;10.90;99.90
53264;DHT22;39153;52.680;6.172;2023-05-14T04:53:22;10.80;99.90
53264;DHT22;39153;52.680;6.172;2023-05-14T04:55:48;10.90;99.90
53264;DHT22;39153;52.680;6.172;2023-05-14T04:58:14;10.90;99.90
53264;DHT22;39153;52.680;6.172;2023-05-14T05:00:40;10.90;99.90
53264;DHT22;39153;52.680;6.172;2023-05-14T05:03:06;10.90;99.90
53264;DHT22;39153;52.680;6.172;2023-05-14T05:05:32;10.90;99.90
53264;DHT22;39153;52.680;6.172;2023-05-14T05:07:57;10.90;99.90
53264;DHT22;39153;52.680;6.172;2023-05-14T05:10:23;11.00;99.90
53264;DHT22;39153;52.680;6.172;2023-05-14T05:12:49;11.00;99.90
53264;DHT22;39153;52.680;6.172;2023-05-14T05:15:14;11.10;99.90
53264;DHT22;39153;52.680;6.172;2023-05-14T05:17:40;11.10;99.90
53264;DHT22;39153;52.680;6.172;2023-05-14T05:20:06;11.20;99.90
53264;DHT22;39153;52.680;6.172;2023-05-14T05:22:34;11.20;99.90
53264;DHT22;39153;52.680;6.172;2023-05-14T05:25:00;11.20;99.90
53264;DHT22;39153;52.680;6.172;2023-05-14T05:27:29;11.20;99.90
53264;DHT22;39153;52.680;6.172;2023-05-14T05:29:55;11.20;99.90
53264;DHT22;39153;52.680;6.172;2023-05-14T05:32:21;11.30;99.90
53264;DHT22;39153;52.680;6.172;2023-05-14T05:34:48;11.30;99.90
53264;DHT22;39153;52.680;6.172;2023-05-14T05:37:13;11.40;99.90
53264;DHT22;39153;52.680;6.172;2023-05-14T05:39:39;11.40;99.90
53264;DHT22;39153;52.680;6.172;2023-05-14T05:42:05;11.50;99.90
53264;DHT22;39153;52.680;6.172;2023-05-14T05:44:31;11.50;99.90
53264;DHT22;39153;52.680;6.172;2023-05-14T05:46:57;11.50;99.90
53264;DHT22;39153;52.680;6.172;2023-05-14T05:49:22;11.50;99.90
53264;DHT22;39153;52.680;6.172;2023-05-14T05:51:48;11.50;99.90
53264;DHT22;39153;52.680;6.172;2023-05-14T05:54:14;11.50;99.90
53264;DHT22;39153;52.680;6.172;2023-05-14T05:56:39;11.50;99.90
53264;DHT22;39153;52.680;6.172;2023-05-14T05:59:05;11.60;99.90
53264;DHT22;39153;52.680;6.172;2023-05-14T06:01:31;11.60;99.90
53264;DHT22;39153;52.680;6.172;2023-05-14T06:03:56;11.70;99.90
53264;DHT22;39153;52.680;6.172;2023-05-14T06:06:22;11.80;99.90
53264;DHT22;39153;52.680;6.172;2023-05-14T06:08:48;11.80;99.90
53264;DHT22;39153;52.680;6.172;2023-05-14T06:11:13;11.90;99.90
53264;DHT22;39153;52.680;6.172;2023-05-14T06:13:41;11.90;99.90
53264;DHT22;39153;52.680;6.172;2023-05-14T06:16:06;12.00;99.90
53264;DHT22;39153;52.680;6.172;2023-05-14T06:18:35;12.10;99.90
53264;DHT22;39153;52.680;6.172;2023-05-14T06:21:01;12.10;99.90
53264;DHT22;39153;52.680;6.172;2023-05-14T06:23:28;12.30;99.90
53264;DHT22;39153;52.680;6.172;2023-05-14T06:25:54;12.30;99.90
53264;DHT22;39153;52.680;6.172;2023-05-14T06:28:19;12.40;99.90
53264;DHT22;39153;52.680;6.172;2023-05-14T06:30:48;12.50;99.90
53264;DHT22;39153;52.680;6.172;2023-05-14T06:33:14;12.50;99.90
53264;DHT22;39153;52.680;6.172;2023-05-14T06:35:39;12.50;99.90
53264;DHT22;39153;52.680;6.172;2023-05-14T06:38:05;12.50;99.90
53264;DHT22;39153;52.680;6.172;2023-05-14T06:40:31;12.60;99.90
53264;DHT22;39153;52.680;6.172;2023-05-14T06:42:56;12.70;99.90
53264;DHT22;39153;52.680;6.172;2023-05-14T06:45:22;12.70;99.90
53264;DHT22;39153;52.680;6.172;2023-05-14T06:47:48;12.80;99.90
53264;DHT22;39153;52.680;6.172;2023-05-14T06:50:13;12.80;99.90
53264;DHT22;39153;52.680;6.172;2023-05-14T06:52:39;12.80;99.90
53264;DHT22;39153;52.680;6.172;2023-05-14T06:55:05;13.00;99.90
53264;DHT22;39153;52.680;6.172;2023-05-14T06:57:31;13.00;99.90
53264;DHT22;39153;52.680;6.172;2023-05-14T06:59:58;13.10;99.90
53264;DHT22;39153;52.680;6.172;2023-05-14T07:02:24;13.20;99.90
53264;DHT22;39153;52.680;6.172;2023-05-14T07:04:49;13.40;99.90
53264;DHT22;39153;52.680;6.172;2023-05-14T07:07:15;13.50;99.90
53264;DHT22;39153;52.680;6.172;2023-05-14T07:09:45;13.60;99.90
53264;DHT22;39153;52.680;6.172;2023-05-14T07:12:10;13.70;99.90
53264;DHT22;39153;52.680;6.172;2023-05-14T07:14:36;13.80;99.90
53264;DHT22;39153;52.680;6.172;2023-05-14T07:17:02;13.90;99.90
53264;DHT22;39153;52.680;6.172;2023-05-14T07:19:28;13.90;99.90
53264;DHT22;39153;52.680;6.172;2023-05-14T07:21:55;14.00;99.90
53264;DHT22;39153;52.680;6.172;2023-05-14T07:24:21;14.10;99.90
53264;DHT22;39153;52.680;6.172;2023-05-14T07:26:48;14.20;99.90
53264;DHT22;39153;52.680;6.172;2023-05-14T07:29:13;14.30;99.90
53264;DHT22;39153;52.680;6.172;2023-05-14T07:31:39;14.40;99.90
53264;DHT22;39153;52.680;6.172;2023-05-14T07:34:05;14.40;99.90
53264;DHT22;39153;52.680;6.172;2023-05-14T07:36:30;14.50;99.90
53264;DHT22;39153;52.680;6.172;2023-05-14T07:38:56;14.60;99.90
53264;DHT22;39153;52.680;6.172;2023-05-14T07:41:22;14.50;99.90
53264;DHT22;39153;52.680;6.172;2023-05-14T07:43:47;14.60;99.90
53264;DHT22;39153;52.680;6.172;2023-05-14T07:46:14;14.60;99.90
53264;DHT22;39153;52.680;6.172;2023-05-14T07:48:39;14.60;99.90
53264;DHT22;39153;52.680;6.172;2023-05-14T07:51:05;14.70;99.90
53264;DHT22;39153;52.680;6.172;2023-05-14T07:53:31;14.80;99.90
53264;DHT22;39153;52.680;6.172;2023-05-14T07:55:56;14.80;99.90
53264;DHT22;39153;52.680;6.172;2023-05-14T07:58:24;14.80;99.90
53264;DHT22;39153;52.680;6.172;2023-05-14T08:00:52;14.80;99.90
53264;DHT22;39153;52.680;6.172;2023-05-14T08:03:17;14.90;99.90
53264;DHT22;39153;52.680;6.172;2023-05-14T08:05:43;15.00;99.90
53264;DHT22;39153;52.680;6.172;2023-05-14T08:08:09;15.00;99.90
53264;DHT22;39153;52.680;6.172;2023-05-14T08:10:35;15.10;99.90
53264;DHT22;39153;52.680;6.172;2023-05-14T08:13:00;15.20;99.90
53264;DHT22;39153;52.680;6.172;2023-05-14T08:15:26;15.20;99.90
53264;DHT22;39153;52.680;6.172;2023-05-14T08:17:52;15.40;99.90
53264;DHT22;39153;52.680;6.172;2023-05-14T08:20:18;15.30;99.90
53264;DHT22;39153;52.680;6.172;2023-05-14T08:22:43;15.40;99.90
53264;DHT22;39153;52.680;6.172;2023-05-14T08:25:09;15.40;99.90
53264;DHT22;39153;52.680;6.172;2023-05-14T08:27:35;15.40;99.90
53264;DHT22;39153;52.680;6.172;2023-05-14T08:30:01;15.50;99.90
53264;DHT22;39153;52.680;6.172;2023-05-14T08:32:26;15.50;99.90
53264;DHT22;39153;52.680;6.172;2023-05-14T08:34:52;15.60;99.90
53264;DHT22;39153;52.680;6.172;2023-05-14T08:37:17;15.70;99.90
53264;DHT22;39153;52.680;6.172;2023-05-14T08:39:43;15.80;99.90
53264;DHT22;39153;52.680;6.172;2023-05-14T08:42:11;15.90;99.90
53264;DHT22;39153;52.680;6.172;2023-05-14T08:44:57;16.10;99.90
53264;DHT22;39153;52.680;6.172;2023-05-14T08:47:24;16.10;99.90
53264;DHT22;39153;52.680;6.172;2023-05-14T08:49:58;16.30;99.90
53264;DHT22;39153;52.680;6.172;2023-05-14T08:52:25;16.50;99.90
53264;DHT22;39153;52.680;6.172;2023-05-14T08:54:51;16.70;99.90
53264;DHT22;39153;52.680;6.172;2023-05-14T08:57:19;16.90;99.90
53264;DHT22;39153;52.680;6.172;2023-05-14T08:59:45;17.00;99.90
53264;DHT22;39153;52.680;6.172;2023-05-14T09:02:13;17.10;99.90
53264;DHT22;39153;52.680;6.172;2023-05-14T09:04:39;17.30;99.90
53264;DHT22;39153;52.680;6.172;2023-05-14T09:07:06;17.40;99.90
53264;DHT22;39153;52.680;6.172;2023-05-14T09:09:32;17.40;99.90
53264;DHT22;39153;52.680;6.172;2023-05-14T09:12:00;17.50;99.90
53264;DHT22;39153;52.680;6.172;2023-05-14T09:14:25;17.60;99.90
53264;DHT22;39153;52.680;6.172;2023-05-14T09:16:51;17.70;99.90
53264;DHT22;39153;52.680;6.172;2023-05-14T09:19:17;17.70;99.90
53264;DHT22;39153;52.680;6.172;2023-05-14T09:21:47;17.90;99.90
53264;DHT22;39153;52.680;6.172;2023-05-14T09:24:24;18.00;99.90
53264;DHT22;39153;52.680;6.172;2023-05-14T09:26:57;18.20;99.90
53264;DHT22;39153;52.680;6.172;2023-05-14T09:29:24;18.30;99.90
53264;DHT22;39153;52.680;6.172;2023-05-14T09:31:50;18.40;99.90
53264;DHT22;39153;52.680;6.172;2023-05-14T09:34:27;18.50;99.90
53264;DHT22;39153;52.680;6.172;2023-05-14T09:36:58;18.60;99.90
53264;DHT22;39153;52.680;6.172;2023-05-14T09:39:24;18.70;99.90
53264;DHT22;39153;52.680;6.172;2023-05-14T09:41:51;18.90;99.90
53264;DHT22;39153;52.680;6.172;2023-05-14T09:44:17;19.00;99.90
53264;DHT22;39153;52.680;6.172;2023-05-14T09:46:44;19.10;99.90
53264;DHT22;39153;52.680;6.172;2023-05-14T09:49:10;19.20;99.90
53264;DHT22;39153;52.680;6.172;2023-05-14T09:51:36;19.30;99.90
53264;DHT22;39153;52.680;6.172;2023-05-14T09:54:03;19.50;99.90
53264;DHT22;39153;52.680;6.172;2023-05-14T09:56:31;19.60;99.90
53264;DHT22;39153;52.680;6.172;2023-05-14T09:58:56;19.60;99.90
53264;DHT22;39153;52.680;6.172;2023-05-14T10:01:22;19.70;99.90
53264;DHT22;39153;52.680;6.172;2023-05-14T10:03:49;19.70;99.90
53264;DHT22;39153;52.680;6.172;2023-05-14T10:06:16;19.70;99.90
53264;DHT22;39153;52.680;6.172;2023-05-14T10:08:44;19.70;99.90
53264;DHT22;39153;52.680;6.172;2023-05-14T10:11:31;19.80;99.90
53264;DHT22;39153;52.680;6.172;2023-05-14T10:14:07;20.00;99.90
53264;DHT22;39153;52.680;6.172;2023-05-14T10:16:36;20.10;99.90
53264;DHT22;39153;52.680;6.172;2023-05-14T10:19:23;20.30;99.90
53264;DHT22;39153;52.680;6.172;2023-05-14T10:21:55;20.40;99.90
53264;DHT22;39153;52.680;6.172;2023-05-14T10:24:21;20.50;99.90
53264;DHT22;39153;52.680;6.172;2023-05-14T10:26:47;20.70;99.90
53264;DHT22;39153;52.680;6.172;2023-05-14T10:29:13;20.80;99.90
53264;DHT22;39153;52.680;6.172;2023-05-14T10:31:52;20.80;99.90
53264;DHT22;39153;52.680;6.172;2023-05-14T10:34:37;21.00;99.90
53264;DHT22;39153;52.680;6.172;2023-05-14T10:37:13;21.00;99.90
53264;DHT22;39153;52.680;6.172;2023-05-14T10:42:19;21.10;99.90
53264;DHT22;39153;52.680;6.172;2023-05-14T10:45:10;21.00;99.90
53264;DHT22;39153;52.680;6.172;2023-05-14T10:47:45;21.10;99.90
53264;DHT22;39153;52.680;6.172;2023-05-14T10:50:13;21.30;99.90
53264;DHT22;39153;52.680;6.172;2023-05-14T10:52:43;21.40;99.90
53264;DHT22;39153;52.680;6.172;2023-05-14T10:55:13;21.50;99.90
53264;DHT22;39153;52.680;6.172;2023-05-14T10:57:42;21.50;99.90
53264;DHT22;39153;52.680;6.172;2023-05-14T11:00:08;21.50;99.90
53264;DHT22;39153;52.680;6.172;2023-05-14T11:02:36;21.50;99.90
53264;DHT22;39153;52.680;6.172;2023-05-14T11:05:08;21.50;99.90
53264;DHT22;39153;52.680;6.172;2023-05-14T11:07:40;21.60;99.90
53264;DHT22;39153;52.680;6.172;2023-05-14T11:10:17;21.70;99.90
53264;DHT22;39153;52.680;6.172;2023-05-14T11:12:47;21.80;99.90
53264;DHT22;39153;52.680;6.172;2023-05-14T11:15:15;21.90;99.90
53264;DHT22;39153;52.680;6.172;2023-05-14T11:17:43;22.00;99.90
53264;DHT22;39153;52.680;6.172;2023-05-14T11:20:10;22.10;99.90
53264;DHT22;39153;52.680;6.172;2023-05-14T11:22:38;22.30;99.90
53264;DHT22;39153;52.680;6.172;2023-05-14T11:25:05;22.40;99.90
53264;DHT22;39153;52.680;6.172;2023-05-14T11:27:33;22.60;99.90
53264;DHT22;39153;52.680;6.172;2023-05-14T11:29:59;22.70;99.90
53264;DHT22;39153;52.680;6.172;2023-05-14T11:32:25;22.70;99.90
53264;DHT22;39153;52.680;6.172;2023-05-14T11:34:51;22.80;99.90
53264;DHT22;39153;52.680;6.172;2023-05-14T11:37:17;22.80;99.90
53264;DHT22;39153;52.680;6.172;2023-05-14T11:39:51;22.80;99.90
53264;DHT22;39153;52.680;6.172;2023-05-14T11:42:17;22.80;99.90
53264;DHT22;39153;52.680;6.172;2023-05-14T11:44:48;22.80;99.90
53264;DHT22;39153;52.680;6.172;2023-05-14T11:47:16;22.90;99.90
53264;DHT22;39153;52.680;6.172;2023-05-14T11:49:42;23.00;99.90
53264;DHT22;39153;52.680;6.172;2023-05-14T11:52:09;23.10;99.90
53264;DHT22;39153;52.680;6.172;2023-05-14T11:54:44;23.20;99.90
53264;DHT22;39153;52.680;6.172;2023-05-14T11:57:12;23.60;99.90
53264;DHT22;39153;52.680;6.172;2023-05-14T11:59:38;23.80;99.90
53264;DHT22;39153;52.680;6.172;2023-05-14T12:02:07;23.80;99.90
53264;DHT22;39153;52.680;6.172;2023-05-14T12:04:34;23.80;99.90
53264;DHT22;39153;52.680;6.172;2023-05-14T12:07:10;23.80;99.90
53264;DHT22;39153;52.680;6.172;2023-05-14T12:09:42;23.80;99.90
53264;DHT22;39153;52.680;6.172;2023-05-14T12:12:13;23.80;99.90
53264;DHT22;39153;52.680;6.172;2023-05-14T12:14:41;23.80;99.90
53264;DHT22;39153;52.680;6.172;2023-05-14T12:17:14;23.90;99.90
53264;DHT22;39153;52.680;6.172;2023-05-14T12:19:41;24.10;99.10
53264;DHT22;39153;52.680;6.172;2023-05-14T12:22:08;24.30;99.20
53264;DHT22;39153;52.680;6.172;2023-05-14T12:24:35;24.40;98.70
53264;DHT22;39153;52.680;6.172;2023-05-14T12:27:01;24.60;98.80
53264;DHT22;39153;52.680;6.172;2023-05-14T12:29:27;24.70;98.40
53264;DHT22;39153;52.680;6.172;2023-05-14T12:31:55;24.70;98.00
53264;DHT22;39153;52.680;6.172;2023-05-14T12:34:21;24.90;98.00
53264;DHT22;39153;52.680;6.172;2023-05-14T12:36:50;25.10;96.90
53264;DHT22;39153;52.680;6.172;2023-05-14T12:39:19;25.20;96.60
53264;DHT22;39153;52.680;6.172;2023-05-14T12:41:44;25.30;95.90
53264;DHT22;39153;52.680;6.172;2023-05-14T12:44:10;25.40;95.80
53264;DHT22;39153;52.680;6.172;2023-05-14T12:46:35;25.40;95.90
53264;DHT22;39153;52.680;6.172;2023-05-14T12:49:01;25.40;95.10
53264;DHT22;39153;52.680;6.172;2023-05-14T12:51:27;25.30;94.20
53264;DHT22;39153;52.680;6.172;2023-05-14T12:53:52;25.20;94.10
53264;DHT22;39153;52.680;6.172;2023-05-14T12:56:19;25.20;94.00
53264;DHT22;39153;52.680;6.172;2023-05-14T12:58:46;25.20;93.60
53264;DHT22;39153;52.680;6.172;2023-05-14T13:01:12;25.20;92.60
53264;DHT22;39153;52.680;6.172;2023-05-14T13:03:37;25.10;92.10
53264;DHT22;39153;52.680;6.172;2023-05-14T13:06:03;25.10;92.70
53264;DHT22;39153;52.680;6.172;2023-05-14T13:08:29;25.10;93.30
53264;DHT22;39153;52.680;6.172;2023-05-14T13:10:55;25.00;93.40
53264;DHT22;39153;52.680;6.172;2023-05-14T13:13:22;24.90;92.90
53264;DHT22;39153;52.680;6.172;2023-05-14T13:15:48;24.70;92.90
53264;DHT22;39153;52.680;6.172;2023-05-14T13:18:14;24.60;92.20
53264;DHT22;39153;52.680;6.172;2023-05-14T13:20:41;24.60;92.60
53264;DHT22;39153;52.680;6.172;2023-05-14T13:23:06;24.50;92.60
53264;DHT22;39153;52.680;6.172;2023-05-14T13:25:32;24.50;92.40
53264;DHT22;39153;52.680;6.172;2023-05-14T13:27:58;24.50;92.00
53264;DHT22;39153;52.680;6.172;2023-05-14T13:30:24;24.40;92.20
53264;DHT22;39153;52.680;6.172;2023-05-14T13:32:50;24.50;92.80
53264;DHT22;39153;52.680;6.172;2023-05-14T13:35:16;24.50;92.20
53264;DHT22;39153;52.680;6.172;2023-05-14T13:37:42;24.60;92.40
53264;DHT22;39153;52.680;6.172;2023-05-14T13:40:08;24.70;92.10
53264;DHT22;39153;52.680;6.172;2023-05-14T13:42:37;24.80;92.20
53264;DHT22;39153;52.680;6.172;2023-05-14T13:45:06;24.90;92.50
53264;DHT22;39153;52.680;6.172;2023-05-14T13:47:32;25.00;92.70
53264;DHT22;39153;52.680;6.172;2023-05-14T13:49:58;25.10;91.90
53264;DHT22;39153;52.680;6.172;2023-05-14T13:52:24;25.00;91.50
53264;DHT22;39153;52.680;6.172;2023-05-14T13:54:50;25.00;91.60
53264;DHT22;39153;52.680;6.172;2023-05-14T13:57:18;25.10;91.40
53264;DHT22;39153;52.680;6.172;2023-05-14T13:59:45;25.20;91.80
53264;DHT22;39153;52.680;6.172;2023-05-14T14:02:11;25.20;91.60
53264;DHT22;39153;52.680;6.172;2023-05-14T14:04:36;25.30;91.40
53264;DHT22;39153;52.680;6.172;2023-05-14T14:07:02;25.20;90.70
53264;DHT22;39153;52.680;6.172;2023-05-14T14:09:28;25.20;90.70
53264;DHT22;39153;52.680;6.172;2023-05-14T14:12:02;25.20;90.40
53264;DHT22;39153;52.680;6.172;2023-05-14T14:14:28;25.20;89.80
53264;DHT22;39153;52.680;6.172;2023-05-14T14:16:54;25.30;89.80
53264;DHT22;39153;52.680;6.172;2023-05-14T14:19:19;25.30;88.10
53264;DHT22;39153;52.680;6.172;2023-05-14T14:21:45;25.30;87.40
53264;DHT22;39153;52.680;6.172;2023-05-14T14:24:11;25.20;86.20
53264;DHT22;39153;52.680;6.172;2023-05-14T14:26:36;25.10;85.40
53264;DHT22;39153;52.680;6.172;2023-05-14T14:29:02;24.80;85.10
53264;DHT22;39153;52.680;6.172;2023-05-14T14:31:28;24.70;85.00
53264;DHT22;39153;52.680;6.172;2023-05-14T14:33:53;24.60;83.80
53264;DHT22;39153;52.680;6.172;2023-05-14T14:36:19;24.60;83.90
53264;DHT22;39153;52.680;6.172;2023-05-14T14:38:45;24.50;84.00
53264;DHT22;39153;52.680;6.172;2023-05-14T14:41:11;24.50;85.10
53264;DHT22;39153;52.680;6.172;2023-05-14T14:43:37;24.50;84.50
53264;DHT22;39153;52.680;6.172;2023-05-14T14:46:04;24.50;84.20
53264;DHT22;39153;52.680;6.172;2023-05-14T14:48:32;24.50;83.40
53264;DHT22;39153;52.680;6.172;2023-05-14T14:51:03;24.50;83.60
53264;DHT22;39153;52.680;6.172;2023-05-14T14:53:29;24.60;84.20
53264;DHT22;39153;52.680;6.172;2023-05-14T14:55:55;24.60;84.50
53264;DHT22;39153;52.680;6.172;2023-05-14T14:58:22;24.60;84.90
53264;DHT22;39153;52.680;6.172;2023-05-14T15:00:53;24.70;85.30
53264;DHT22;39153;52.680;6.172;2023-05-14T15:03:20;24.80;86.90
53264;DHT22;39153;52.680;6.172;2023-05-14T15:05:46;24.90;89.50
53264;DHT22;39153;52.680;6.172;2023-05-14T15:08:12;24.80;90.80
53264;DHT22;39153;52.680;6.172;2023-05-14T15:10:37;24.70;91.40
53264;DHT22;39153;52.680;6.172;2023-05-14T15:13:04;24.60;91.80
53264;DHT22;39153;52.680;6.172;2023-05-14T15:15:31;24.60;91.90
53264;DHT22;39153;52.680;6.172;2023-05-14T15:17:57;24.60;92.40
53264;DHT22;39153;52.680;6.172;2023-05-14T15:20:23;24.60;92.80
53264;DHT22;39153;52.680;6.172;2023-05-14T15:22:48;24.60;92.60
53264;DHT22;39153;52.680;6.172;2023-05-14T15:25:17;24.50;92.70
53264;DHT22;39153;52.680;6.172;2023-05-14T15:27:43;24.40;92.80
53264;DHT22;39153;52.680;6.172;2023-05-14T15:30:09;24.20;93.20
53264;DHT22;39153;52.680;6.172;2023-05-14T15:32:35;24.30;93.10
53264;DHT22;39153;52.680;6.172;2023-05-14T15:35:01;24.30;93.40
53264;DHT22;39153;52.680;6.172;2023-05-14T15:37:27;24.40;93.50
53264;DHT22;39153;52.680;6.172;2023-05-14T15:39:52;24.30;93.70
53264;DHT22;39153;52.680;6.172;2023-05-14T15:42:19;24.30;94.10